sensor_id;sensor_type;location;lat;lon;timestamp;P1;durP1;ratioP1;P2;durP2;ratioP2
70825;SDS011;58446;41.490;22.098;2023-03-31T00:02:08;5.53;;;3.20;;
70825;SDS011;58446;41.490;22.098;2023-03-31T00:04:40;6.10;;;3.03;;
70825;SDS011;58446;41.490;22.098;2023-03-31T00:07:16;6.00;;;3.47;;
70825;SDS011;58446;41.490;22.098;2023-03-31T00:09:48;6.57;;;3.55;;
70825;SDS011;58446;41.490;22.098;2023-03-31T00:12:14;6.13;;;3.10;;
70825;SDS011;58446;41.490;22.098;2023-03-31T00:14:41;6.43;;;3.80;;
70825;SDS011;58446;41.490;22.098;2023-03-31T00:17:07;7.78;;;3.33;;
70825;SDS011;58446;41.490;22.098;2023-03-31T00:19:35;5.60;;;3.38;;
70825;SDS011;58446;41.490;22.098;2023-03-31T00:22:00;6.72;;;3.70;;
70825;SDS011;58446;41.490;22.098;2023-03-31T00:24:29;6.27;;;3.10;;
70825;SDS011;58446;41.490;22.098;2023-03-31T00:26:57;6.18;;;3.30;;
70825;SDS011;58446;41.490;22.098;2023-03-31T00:29:24;6.07;;;3.65;;
70825;SDS011;58446;41.490;22.098;2023-03-31T00:31:50;9.07;;;3.80;;
70825;SDS011;58446;41.490;22.098;2023-03-31T00:34:15;6.10;;;3.80;;
70825;SDS011;58446;41.490;22.098;2023-03-31T00:36:41;6.70;;;3.30;;
70825;SDS011;58446;41.490;22.098;2023-03-31T00:39:14;7.43;;;3.50;;
70825;SDS011;58446;41.490;22.098;2023-03-31T00:41:42;7.50;;;3.47;;
70825;SDS011;58446;41.490;22.098;2023-03-31T00:44:12;7.45;;;3.40;;
70825;SDS011;58446;41.490;22.098;2023-03-31T00:49:46;5.68;;;3.53;;
70825;SDS011;58446;41.490;22.098;2023-03-31T00:54:58;6.88;;;2.90;;
70825;SDS011;58446;41.490;22.098;2023-03-31T00:57:27;6.32;;;3.47;;
70825;SDS011;58446;41.490;22.098;2023-03-31T00:59:58;6.70;;;3.30;;
70825;SDS011;58446;41.490;22.098;2023-03-31T01:02:38;6.97;;;3.90;;
70825;SDS011;58446;41.490;22.098;2023-03-31T01:05:05;7.37;;;3.10;;
70825;SDS011;58446;41.490;22.098;2023-03-31T01:10:02;7.28;;;3.50;;
70825;SDS011;58446;41.490;22.098;2023-03-31T01:12:29;6.65;;;3.55;;
70825;SDS011;58446;41.490;22.098;2023-03-31T01:14:58;8.18;;;3.70;;
70825;SDS011;58446;41.490;22.098;2023-03-31T01:17:24;7.77;;;3.20;;
70825;SDS011;58446;41.490;22.098;2023-03-31T01:22:59;9.77;;;4.07;;
70825;SDS011;58446;41.490;22.098;2023-03-31T01:32:15;7.03;;;4.00;;
70825;SDS011;58446;41.490;22.098;2023-03-31T01:34:59;6.03;;;3.35;;
70825;SDS011;58446;41.490;22.098;2023-03-31T01:45:18;6.43;;;3.53;;
70825;SDS011;58446;41.490;22.098;2023-03-31T01:48:01;5.53;;;3.50;;
70825;SDS011;58446;41.490;22.098;2023-03-31T01:50:52;7.10;;;3.95;;
70825;SDS011;58446;41.490;22.098;2023-03-31T01:58:51;6.87;;;3.47;;
70825;SDS011;58446;41.490;22.098;2023-03-31T02:01:29;5.80;;;3.58;;
70825;SDS011;58446;41.490;22.098;2023-03-31T02:07:21;7.78;;;3.58;;
70825;SDS011;58446;41.490;22.098;2023-03-31T02:09:56;7.07;;;3.90;;
70825;SDS011;58446;41.490;22.098;2023-03-31T02:12:26;6.93;;;3.60;;
70825;SDS011;58446;41.490;22.098;2023-03-31T02:14:54;6.45;;;3.65;;
70825;SDS011;58446;41.490;22.098;2023-03-31T02:17:23;6.55;;;3.90;;
70825;SDS011;58446;41.490;22.098;2023-03-31T02:19:56;7.80;;;4.03;;
70825;SDS011;58446;41.490;22.098;2023-03-31T02:22:26;6.78;;;3.90;;
70825;SDS011;58446;41.490;22.098;2023-03-31T02:24:56;7.67;;;4.30;;
70825;SDS011;58446;41.490;22.098;2023-03-31T02:27:30;7.45;;;3.88;;
70825;SDS011;58446;41.490;22.098;2023-03-31T02:29:59;6.88;;;4.25;;
70825;SDS011;58446;41.490;22.098;2023-03-31T02:32:35;8.65;;;4.47;;
70825;SDS011;58446;41.490;22.098;2023-03-31T02:35:03;9.18;;;5.60;;
70825;SDS011;58446;41.490;22.098;2023-03-31T02:37:31;8.17;;;4.33;;
70825;SDS011;58446;41.490;22.098;2023-03-31T02:39:58;10.75;;;4.63;;
70825;SDS011;58446;41.490;22.098;2023-03-31T02:42:27;9.25;;;4.40;;
70825;SDS011;58446;41.490;22.098;2023-03-31T02:44:52;7.13;;;4.20;;
70825;SDS011;58446;41.490;22.098;2023-03-31T02:47:19;9.67;;;4.23;;
70825;SDS011;58446;41.490;22.098;2023-03-31T02:49:50;10.23;;;5.03;;
70825;SDS011;58446;41.490;22.098;2023-03-31T03:01:06;7.07;;;3.63;;
70825;SDS011;58446;41.490;22.098;2023-03-31T03:03:57;7.85;;;4.45;;
70825;SDS011;58446;41.490;22.098;2023-03-31T03:06:56;8.65;;;4.20;;
70825;SDS011;58446;41.490;22.098;2023-03-31T03:09:34;10.07;;;4.38;;
70825;SDS011;58446;41.490;22.098;2023-03-31T03:12:21;13.13;;;4.75;;
70825;SDS011;58446;41.490;22.098;2023-03-31T03:14:54;7.93;;;4.20;;
70825;SDS011;58446;41.490;22.098;2023-03-31T03:17:33;8.80;;;4.80;;
70825;SDS011;58446;41.490;22.098;2023-03-31T03:20:02;11.63;;;4.88;;
70825;SDS011;58446;41.490;22.098;2023-03-31T03:22:34;9.95;;;5.20;;
70825;SDS011;58446;41.490;22.098;2023-03-31T03:25:00;11.98;;;6.18;;
70825;SDS011;58446;41.490;22.098;2023-03-31T03:27:26;11.80;;;6.73;;
70825;SDS011;58446;41.490;22.098;2023-03-31T03:29:52;12.20;;;6.57;;
70825;SDS011;58446;41.490;22.098;2023-03-31T03:32:18;14.88;;;6.20;;
70825;SDS011;58446;41.490;22.098;2023-03-31T03:34:44;11.93;;;5.53;;
70825;SDS011;58446;41.490;22.098;2023-03-31T03:37:09;9.63;;;5.50;;
70825;SDS011;58446;41.490;22.098;2023-03-31T03:39:35;10.60;;;5.80;;
70825;SDS011;58446;41.490;22.098;2023-03-31T03:42:01;10.70;;;5.17;;
70825;SDS011;58446;41.490;22.098;2023-03-31T03:44:27;12.65;;;5.82;;
70825;SDS011;58446;41.490;22.098;2023-03-31T03:46:53;9.20;;;5.80;;
70825;SDS011;58446;41.490;22.098;2023-03-31T03:49:19;15.17;;;6.77;;
70825;SDS011;58446;41.490;22.098;2023-03-31T03:51:45;11.82;;;6.70;;
70825;SDS011;58446;41.490;22.098;2023-03-31T03:54:11;10.37;;;5.60;;
70825;SDS011;58446;41.490;22.098;2023-03-31T03:56:36;11.32;;;5.90;;
70825;SDS011;58446;41.490;22.098;2023-03-31T03:59:02;12.35;;;6.10;;
70825;SDS011;58446;41.490;22.098;2023-03-31T04:01:28;12.87;;;5.80;;
70825;SDS011;58446;41.490;22.098;2023-03-31T04:03:53;14.07;;;7.13;;
70825;SDS011;58446;41.490;22.098;2023-03-31T04:06:19;14.95;;;6.53;;
70825;SDS011;58446;41.490;22.098;2023-03-31T04:08:45;10.93;;;6.33;;
70825;SDS011;58446;41.490;22.098;2023-03-31T04:11:11;9.40;;;5.88;;
70825;SDS011;58446;41.490;22.098;2023-03-31T04:13:42;10.38;;;6.10;;
70825;SDS011;58446;41.490;22.098;2023-03-31T04:16:08;11.87;;;6.73;;
70825;SDS011;58446;41.490;22.098;2023-03-31T04:18:34;14.73;;;7.30;;
70825;SDS011;58446;41.490;22.098;2023-03-31T04:21:01;13.85;;;6.95;;
70825;SDS011;58446;41.490;22.098;2023-03-31T04:23:34;12.68;;;6.93;;
70825;SDS011;58446;41.490;22.098;2023-03-31T04:26:11;13.55;;;6.63;;
70825;SDS011;58446;41.490;22.098;2023-03-31T04:28:37;12.83;;;6.93;;
70825;SDS011;58446;41.490;22.098;2023-03-31T04:31:07;12.55;;;6.88;;
70825;SDS011;58446;41.490;22.098;2023-03-31T04:33:34;16.83;;;7.53;;
70825;SDS011;58446;41.490;22.098;2023-03-31T04:36:03;19.42;;;9.77;;
70825;SDS011;58446;41.490;22.098;2023-03-31T04:38:31;15.45;;;7.75;;
70825;SDS011;58446;41.490;22.098;2023-03-31T04:41:00;16.47;;;8.83;;
70825;SDS011;58446;41.490;22.098;2023-03-31T04:43:26;17.15;;;9.38;;
70825;SDS011;58446;41.490;22.098;2023-03-31T04:45:51;19.52;;;10.63;;
70825;SDS011;58446;41.490;22.098;2023-03-31T04:48:17;17.73;;;9.63;;
70825;SDS011;58446;41.490;22.098;2023-03-31T04:50:43;16.70;;;10.60;;
70825;SDS011;58446;41.490;22.098;2023-03-31T04:53:10;21.00;;;11.07;;
70825;SDS011;58446;41.490;22.098;2023-03-31T04:55:36;26.23;;;16.15;;
70825;SDS011;58446;41.490;22.098;2023-03-31T04:58:01;28.60;;;14.27;;
70825;SDS011;58446;41.490;22.098;2023-03-31T05:00:27;29.73;;;15.17;;
70825;SDS011;58446;41.490;22.098;2023-03-31T05:02:54;23.27;;;12.15;;
70825;SDS011;58446;41.490;22.098;2023-03-31T05:05:21;25.25;;;12.43;;
70825;SDS011;58446;41.490;22.098;2023-03-31T05:07:46;28.30;;;12.87;;
70825;SDS011;58446;41.490;22.098;2023-03-31T05:10:12;22.02;;;11.40;;
70825;SDS011;58446;41.490;22.098;2023-03-31T05:12:38;22.17;;;11.37;;
70825;SDS011;58446;41.490;22.098;2023-03-31T05:15:04;22.38;;;11.02;;
70825;SDS011;58446;41.490;22.098;2023-03-31T05:17:31;19.00;;;9.73;;
70825;SDS011;58446;41.490;22.098;2023-03-31T05:19:58;20.40;;;9.88;;
70825;SDS011;58446;41.490;22.098;2023-03-31T05:22:24;15.43;;;7.78;;
70825;SDS011;58446;41.490;22.098;2023-03-31T05:24:51;15.30;;;6.63;;
70825;SDS011;58446;41.490;22.098;2023-03-31T05:27:17;14.85;;;7.30;;
70825;SDS011;58446;41.490;22.098;2023-03-31T05:29:45;16.33;;;7.28;;
70825;SDS011;58446;41.490;22.098;2023-03-31T05:32:11;15.00;;;8.33;;
70825;SDS011;58446;41.490;22.098;2023-03-31T05:34:36;18.13;;;8.15;;
70825;SDS011;58446;41.490;22.098;2023-03-31T05:37:02;17.10;;;7.90;;
70825;SDS011;58446;41.490;22.098;2023-03-31T05:39:28;12.23;;;7.03;;
70825;SDS011;58446;41.490;22.098;2023-03-31T05:41:59;12.48;;;6.85;;
70825;SDS011;58446;41.490;22.098;2023-03-31T05:44:25;15.07;;;5.80;;
70825;SDS011;58446;41.490;22.098;2023-03-31T05:46:54;15.10;;;6.77;;
70825;SDS011;58446;41.490;22.098;2023-03-31T05:49:19;10.52;;;5.68;;
70825;SDS011;58446;41.490;22.098;2023-03-31T05:51:45;13.02;;;8.05;;
70825;SDS011;58446;41.490;22.098;2023-03-31T05:54:12;14.23;;;8.25;;
70825;SDS011;58446;41.490;22.098;2023-03-31T05:56:38;17.03;;;7.90;;
70825;SDS011;58446;41.490;22.098;2023-03-31T05:59:03;13.60;;;6.97;;
70825;SDS011;58446;41.490;22.098;2023-03-31T06:01:29;11.93;;;6.65;;
70825;SDS011;58446;41.490;22.098;2023-03-31T06:03:55;8.57;;;5.53;;
70825;SDS011;58446;41.490;22.098;2023-03-31T06:06:21;8.90;;;4.43;;
70825;SDS011;58446;41.490;22.098;2023-03-31T06:08:47;10.10;;;5.20;;
70825;SDS011;58446;41.490;22.098;2023-03-31T06:11:14;12.30;;;6.70;;
70825;SDS011;58446;41.490;22.098;2023-03-31T06:13:43;15.02;;;7.10;;
70825;SDS011;58446;41.490;22.098;2023-03-31T06:16:11;11.90;;;6.05;;
70825;SDS011;58446;41.490;22.098;2023-03-31T06:18:38;10.93;;;5.85;;
70825;SDS011;58446;41.490;22.098;2023-03-31T06:21:04;9.43;;;5.43;;
70825;SDS011;58446;41.490;22.098;2023-03-31T06:23:30;10.50;;;5.80;;
70825;SDS011;58446;41.490;22.098;2023-03-31T06:26:00;10.90;;;4.70;;
70825;SDS011;58446;41.490;22.098;2023-03-31T06:28:27;9.73;;;4.93;;
70825;SDS011;58446;41.490;22.098;2023-03-31T06:31:01;11.57;;;4.35;;
70825;SDS011;58446;41.490;22.098;2023-03-31T06:33:36;8.47;;;3.47;;
70825;SDS011;58446;41.490;22.098;2023-03-31T06:36:03;9.23;;;4.38;;
70825;SDS011;58446;41.490;22.098;2023-03-31T06:38:30;8.68;;;4.10;;
70825;SDS011;58446;41.490;22.098;2023-03-31T06:40:57;7.85;;;3.20;;
70825;SDS011;58446;41.490;22.098;2023-03-31T06:43:23;8.70;;;4.80;;
70825;SDS011;58446;41.490;22.098;2023-03-31T06:45:48;8.07;;;4.38;;
70825;SDS011;58446;41.490;22.098;2023-03-31T06:48:14;8.23;;;3.73;;
70825;SDS011;58446;41.490;22.098;2023-03-31T06:50:40;8.85;;;3.88;;
70825;SDS011;58446;41.490;22.098;2023-03-31T06:53:07;8.95;;;4.25;;
70825;SDS011;58446;41.490;22.098;2023-03-31T06:55:33;9.40;;;3.80;;
70825;SDS011;58446;41.490;22.098;2023-03-31T06:57:59;8.65;;;4.80;;
70825;SDS011;58446;41.490;22.098;2023-03-31T07:00:25;7.82;;;4.35;;
70825;SDS011;58446;41.490;22.098;2023-03-31T07:02:52;8.25;;;3.75;;
70825;SDS011;58446;41.490;22.098;2023-03-31T07:05:18;8.63;;;4.25;;
70825;SDS011;58446;41.490;22.098;2023-03-31T07:07:50;9.27;;;5.33;;
70825;SDS011;58446;41.490;22.098;2023-03-31T07:10:17;12.25;;;5.95;;
70825;SDS011;58446;41.490;22.098;2023-03-31T07:12:43;8.93;;;3.65;;
70825;SDS011;58446;41.490;22.098;2023-03-31T07:15:09;7.85;;;3.70;;
70825;SDS011;58446;41.490;22.098;2023-03-31T07:17:35;8.80;;;3.53;;
70825;SDS011;58446;41.490;22.098;2023-03-31T07:20:02;10.30;;;4.88;;
70825;SDS011;58446;41.490;22.098;2023-03-31T07:22:33;7.93;;;4.07;;
70825;SDS011;58446;41.490;22.098;2023-03-31T07:24:59;6.60;;;4.00;;
70825;SDS011;58446;41.490;22.098;2023-03-31T07:27:25;8.27;;;4.60;;
70825;SDS011;58446;41.490;22.098;2023-03-31T07:29:51;9.25;;;3.58;;
70825;SDS011;58446;41.490;22.098;2023-03-31T07:32:16;8.10;;;3.87;;
70825;SDS011;58446;41.490;22.098;2023-03-31T07:34:42;10.10;;;5.28;;
70825;SDS011;58446;41.490;22.098;2023-03-31T07:37:08;24.13;;;8.83;;
70825;SDS011;58446;41.490;22.098;2023-03-31T07:39:34;21.42;;;10.57;;
70825;SDS011;58446;41.490;22.098;2023-03-31T07:42:01;19.98;;;9.98;;
70825;SDS011;58446;41.490;22.098;2023-03-31T07:44:26;24.43;;;7.57;;
70825;SDS011;58446;41.490;22.098;2023-03-31T07:46:52;17.13;;;5.87;;
70825;SDS011;58446;41.490;22.098;2023-03-31T07:49:18;12.70;;;4.90;;
70825;SDS011;58446;41.490;22.098;2023-03-31T07:51:43;25.10;;;8.50;;
70825;SDS011;58446;41.490;22.098;2023-03-31T07:54:09;15.00;;;7.80;;
70825;SDS011;58446;41.490;22.098;2023-03-31T07:56:35;9.30;;;4.27;;
70825;SDS011;58446;41.490;22.098;2023-03-31T07:59:00;12.83;;;4.80;;
70825;SDS011;58446;41.490;22.098;2023-03-31T08:01:27;13.77;;;6.90;;
70825;SDS011;58446;41.490;22.098;2023-03-31T08:03:53;14.82;;;8.35;;
70825;SDS011;58446;41.490;22.098;2023-03-31T08:06:23;13.40;;;6.30;;
70825;SDS011;58446;41.490;22.098;2023-03-31T08:08:50;10.75;;;5.00;;
70825;SDS011;58446;41.490;22.098;2023-03-31T08:11:17;8.75;;;4.30;;
70825;SDS011;58446;41.490;22.098;2023-03-31T08:13:45;10.38;;;4.43;;
70825;SDS011;58446;41.490;22.098;2023-03-31T08:16:11;7.80;;;4.67;;
70825;SDS011;58446;41.490;22.098;2023-03-31T08:18:37;8.05;;;3.83;;
70825;SDS011;58446;41.490;22.098;2023-03-31T08:21:02;8.70;;;3.73;;
70825;SDS011;58446;41.490;22.098;2023-03-31T08:23:28;7.82;;;3.97;;
70825;SDS011;58446;41.490;22.098;2023-03-31T08:25:54;6.90;;;3.53;;
70825;SDS011;58446;41.490;22.098;2023-03-31T08:28:19;8.52;;;4.10;;
70825;SDS011;58446;41.490;22.098;2023-03-31T08:30:45;7.13;;;3.40;;
70825;SDS011;58446;41.490;22.098;2023-03-31T08:33:11;8.68;;;4.00;;
70825;SDS011;58446;41.490;22.098;2023-03-31T08:35:37;8.10;;;4.20;;
70825;SDS011;58446;41.490;22.098;2023-03-31T08:38:02;8.18;;;4.90;;
70825;SDS011;58446;41.490;22.098;2023-03-31T08:40:29;7.22;;;3.80;;
70825;SDS011;58446;41.490;22.098;2023-03-31T08:42:58;9.25;;;4.25;;
70825;SDS011;58446;41.490;22.098;2023-03-31T08:45:41;8.93;;;4.13;;
70825;SDS011;58446;41.490;22.098;2023-03-31T08:51:13;8.13;;;4.72;;
70825;SDS011;58446;41.490;22.098;2023-03-31T08:53:48;8.90;;;4.22;;
70825;SDS011;58446;41.490;22.098;2023-03-31T08:56:38;7.20;;;3.55;;
70825;SDS011;58446;41.490;22.098;2023-03-31T08:59:19;7.13;;;3.83;;
70825;SDS011;58446;41.490;22.098;2023-03-31T09:04:48;8.00;;;4.28;;
70825;SDS011;58446;41.490;22.098;2023-03-31T09:10:30;9.23;;;3.88;;
70825;SDS011;58446;41.490;22.098;2023-03-31T09:13:09;8.00;;;3.80;;
70825;SDS011;58446;41.490;22.098;2023-03-31T09:18:41;8.70;;;4.40;;
70825;SDS011;58446;41.490;22.098;2023-03-31T09:21:30;7.68;;;3.47;;
70825;SDS011;58446;41.490;22.098;2023-03-31T09:24:19;7.82;;;3.72;;
70825;SDS011;58446;41.490;22.098;2023-03-31T09:26:59;8.47;;;3.60;;
70825;SDS011;58446;41.490;22.098;2023-03-31T09:29:47;9.20;;;3.92;;
70825;SDS011;58446;41.490;22.098;2023-03-31T09:32:18;6.57;;;3.35;;
70825;SDS011;58446;41.490;22.098;2023-03-31T09:34:46;9.30;;;4.30;;
70825;SDS011;58446;41.490;22.098;2023-03-31T09:37:15;7.22;;;3.22;;
70825;SDS011;58446;41.490;22.098;2023-03-31T09:39:41;7.57;;;4.10;;
70825;SDS011;58446;41.490;22.098;2023-03-31T09:42:09;8.23;;;3.92;;
70825;SDS011;58446;41.490;22.098;2023-03-31T09:44:37;7.95;;;3.53;;
70825;SDS011;58446;41.490;22.098;2023-03-31T09:50:03;8.60;;;3.95;;
70825;SDS011;58446;41.490;22.098;2023-03-31T09:55:08;6.80;;;3.33;;
70825;SDS011;58446;41.490;22.098;2023-03-31T09:57:39;6.47;;;3.50;;
70825;SDS011;58446;41.490;22.098;2023-03-31T10:02:38;6.88;;;3.10;;
70825;SDS011;58446;41.490;22.098;2023-03-31T10:05:21;6.40;;;2.85;;
70825;SDS011;58446;41.490;22.098;2023-03-31T10:10:43;6.53;;;3.13;;
70825;SDS011;58446;41.490;22.098;2023-03-31T10:13:18;7.40;;;3.03;;
70825;SDS011;58446;41.490;22.098;2023-03-31T10:15:46;7.15;;;2.88;;
70825;SDS011;58446;41.490;22.098;2023-03-31T10:18:17;6.50;;;2.90;;
70825;SDS011;58446;41.490;22.098;2023-03-31T10:20:56;8.30;;;3.78;;
70825;SDS011;58446;41.490;22.098;2023-03-31T10:23:26;7.83;;;3.33;;
70825;SDS011;58446;41.490;22.098;2023-03-31T10:25:55;7.28;;;3.40;;
70825;SDS011;58446;41.490;22.098;2023-03-31T10:28:21;7.18;;;3.42;;
70825;SDS011;58446;41.490;22.098;2023-03-31T10:30:48;7.18;;;3.17;;
70825;SDS011;58446;41.490;22.098;2023-03-31T10:33:17;7.47;;;3.37;;
70825;SDS011;58446;41.490;22.098;2023-03-31T10:35:54;8.35;;;3.55;;
70825;SDS011;58446;41.490;22.098;2023-03-31T10:38:42;7.55;;;3.08;;
70825;SDS011;58446;41.490;22.098;2023-03-31T10:41:09;7.53;;;2.47;;
70825;SDS011;58446;41.490;22.098;2023-03-31T10:43:38;7.47;;;2.78;;
70825;SDS011;58446;41.490;22.098;2023-03-31T10:46:06;6.03;;;2.33;;
70825;SDS011;58446;41.490;22.098;2023-03-31T10:48:32;7.10;;;2.35;;
70825;SDS011;58446;41.490;22.098;2023-03-31T10:51:19;5.95;;;2.20;;
70825;SDS011;58446;41.490;22.098;2023-03-31T10:53:51;6.78;;;2.63;;
70825;SDS011;58446;41.490;22.098;2023-03-31T10:59:25;6.33;;;2.43;;
70825;SDS011;58446;41.490;22.098;2023-03-31T11:05:07;7.57;;;2.60;;
70825;SDS011;58446;41.490;22.098;2023-03-31T11:13:28;8.33;;;3.00;;
70825;SDS011;58446;41.490;22.098;2023-03-31T11:22:08;8.82;;;2.78;;
70825;SDS011;58446;41.490;22.098;2023-03-31T11:25:03;6.13;;;1.73;;
70825;SDS011;58446;41.490;22.098;2023-03-31T11:30:31;7.47;;;2.05;;
70825;SDS011;58446;41.490;22.098;2023-03-31T11:33:24;7.18;;;2.83;;
70825;SDS011;58446;41.490;22.098;2023-03-31T11:41:58;6.10;;;2.10;;
70825;SDS011;58446;41.490;22.098;2023-03-31T11:44:26;5.97;;;2.60;;
70825;SDS011;58446;41.490;22.098;2023-03-31T11:49:57;8.75;;;2.35;;
70825;SDS011;58446;41.490;22.098;2023-03-31T11:52:32;6.63;;;2.35;;
70825;SDS011;58446;41.490;22.098;2023-03-31T12:00:41;9.68;;;3.65;;
70825;SDS011;58446;41.490;22.098;2023-03-31T12:03:18;8.27;;;3.15;;
70825;SDS011;58446;41.490;22.098;2023-03-31T12:06:00;12.93;;;3.35;;
70825;SDS011;58446;41.490;22.098;2023-03-31T12:08:33;6.23;;;2.50;;
70825;SDS011;58446;41.490;22.098;2023-03-31T12:11:25;8.02;;;2.67;;
70825;SDS011;58446;41.490;22.098;2023-03-31T12:16:46;6.25;;;2.80;;
70825;SDS011;58446;41.490;22.098;2023-03-31T12:21:46;8.97;;;2.97;;
70825;SDS011;58446;41.490;22.098;2023-03-31T12:24:15;7.88;;;2.80;;
70825;SDS011;58446;41.490;22.098;2023-03-31T12:29:13;6.87;;;2.20;;
70825;SDS011;58446;41.490;22.098;2023-03-31T12:31:54;8.43;;;2.83;;
70825;SDS011;58446;41.490;22.098;2023-03-31T12:34:22;7.78;;;2.55;;
70825;SDS011;58446;41.490;22.098;2023-03-31T12:37:04;8.97;;;2.47;;
70825;SDS011;58446;41.490;22.098;2023-03-31T12:42:33;5.60;;;1.92;;
70825;SDS011;58446;41.490;22.098;2023-03-31T12:45:23;5.38;;;1.88;;
70825;SDS011;58446;41.490;22.098;2023-03-31T12:59:40;8.00;;;2.13;;
70825;SDS011;58446;41.490;22.098;2023-03-31T13:04:35;6.57;;;2.30;;
70825;SDS011;58446;41.490;22.098;2023-03-31T13:07:02;6.15;;;2.17;;
70825;SDS011;58446;41.490;22.098;2023-03-31T13:12:05;7.05;;;2.13;;
70825;SDS011;58446;41.490;22.098;2023-03-31T13:14:35;8.43;;;2.65;;
70825;SDS011;58446;41.490;22.098;2023-03-31T13:17:11;6.47;;;2.20;;
70825;SDS011;58446;41.490;22.098;2023-03-31T13:19:46;8.32;;;2.63;;
70825;SDS011;58446;41.490;22.098;2023-03-31T13:27:54;6.47;;;2.25;;
70825;SDS011;58446;41.490;22.098;2023-03-31T13:33:14;6.72;;;2.30;;
70825;SDS011;58446;41.490;22.098;2023-03-31T13:38:42;6.97;;;2.33;;
70825;SDS011;58446;41.490;22.098;2023-03-31T13:58:30;7.07;;;2.80;;
70825;SDS011;58446;41.490;22.098;2023-03-31T14:07:44;6.13;;;2.00;;
70825;SDS011;58446;41.490;22.098;2023-03-31T14:09:51;9.27;;;2.40;;
70825;SDS011;58446;41.490;22.098;2023-03-31T14:12:31;6.57;;;2.47;;
70825;SDS011;58446;41.490;22.098;2023-03-31T14:14:59;8.25;;;2.33;;
70825;SDS011;58446;41.490;22.098;2023-03-31T14:17:26;7.60;;;2.58;;
70825;SDS011;58446;41.490;22.098;2023-03-31T14:25:43;7.93;;;2.03;;
70825;SDS011;58446;41.490;22.098;2023-03-31T14:36:54;8.35;;;3.15;;
70825;SDS011;58446;41.490;22.098;2023-03-31T14:39:37;8.30;;;3.17;;
70825;SDS011;58446;41.490;22.098;2023-03-31T14:42:10;7.30;;;2.67;;
70825;SDS011;58446;41.490;22.098;2023-03-31T14:44:42;9.35;;;3.70;;
70825;SDS011;58446;41.490;22.098;2023-03-31T14:47:12;7.90;;;3.55;;
70825;SDS011;58446;41.490;22.098;2023-03-31T14:49:44;8.88;;;4.10;;
70825;SDS011;58446;41.490;22.098;2023-03-31T14:52:17;6.23;;;3.20;;
70825;SDS011;58446;41.490;22.098;2023-03-31T14:54:47;9.35;;;3.63;;
70825;SDS011;58446;41.490;22.098;2023-03-31T14:57:17;6.90;;;2.80;;
70825;SDS011;58446;41.490;22.098;2023-03-31T14:59:45;9.10;;;3.20;;
70825;SDS011;58446;41.490;22.098;2023-03-31T15:02:18;7.00;;;2.92;;
70825;SDS011;58446;41.490;22.098;2023-03-31T15:05:18;7.28;;;2.85;;
70825;SDS011;58446;41.490;22.098;2023-03-31T15:07:57;5.78;;;2.70;;
70825;SDS011;58446;41.490;22.098;2023-03-31T15:10:34;8.07;;;2.63;;
70825;SDS011;58446;41.490;22.098;2023-03-31T15:13:09;5.63;;;2.00;;
70825;SDS011;58446;41.490;22.098;2023-03-31T15:15:39;7.28;;;2.63;;
70825;SDS011;58446;41.490;22.098;2023-03-31T15:18:05;9.85;;;3.05;;
70825;SDS011;58446;41.490;22.098;2023-03-31T15:20:35;7.67;;;3.30;;
70825;SDS011;58446;41.490;22.098;2023-03-31T15:23:17;9.45;;;3.00;;
70825;SDS011;58446;41.490;22.098;2023-03-31T15:25:48;8.95;;;2.38;;
70825;SDS011;58446;41.490;22.098;2023-03-31T15:28:28;6.25;;;1.75;;
70825;SDS011;58446;41.490;22.098;2023-03-31T15:30:58;8.48;;;3.20;;
70825;SDS011;58446;41.490;22.098;2023-03-31T15:33:33;8.03;;;2.63;;
70825;SDS011;58446;41.490;22.098;2023-03-31T15:36:05;9.75;;;2.80;;
70825;SDS011;58446;41.490;22.098;2023-03-31T15:38:37;7.30;;;2.95;;
70825;SDS011;58446;41.490;22.098;2023-03-31T15:41:03;8.30;;;3.33;;
70825;SDS011;58446;41.490;22.098;2023-03-31T15:49:18;9.13;;;3.83;;
70825;SDS011;58446;41.490;22.098;2023-03-31T15:51:46;8.65;;;3.20;;
70825;SDS011;58446;41.490;22.098;2023-03-31T15:57:04;44.53;;;29.87;;
70825;SDS011;58446;41.490;22.098;2023-03-31T15:59:49;20.63;;;12.52;;
70825;SDS011;58446;41.490;22.098;2023-03-31T16:05:23;10.45;;;5.55;;
70825;SDS011;58446;41.490;22.098;2023-03-31T16:07:59;12.43;;;7.75;;
70825;SDS011;58446;41.490;22.098;2023-03-31T16:10:26;10.67;;;5.47;;
70825;SDS011;58446;41.490;22.098;2023-03-31T16:13:00;18.15;;;10.15;;
70825;SDS011;58446;41.490;22.098;2023-03-31T16:15:31;30.17;;;18.48;;
70825;SDS011;58446;41.490;22.098;2023-03-31T16:18:06;26.63;;;13.27;;
70825;SDS011;58446;41.490;22.098;2023-03-31T16:20:55;19.27;;;10.90;;
70825;SDS011;58446;41.490;22.098;2023-03-31T16:23:24;19.85;;;11.60;;
70825;SDS011;58446;41.490;22.098;2023-03-31T16:25:52;20.13;;;13.15;;
70825;SDS011;58446;41.490;22.098;2023-03-31T16:28:30;20.50;;;12.13;;
70825;SDS011;58446;41.490;22.098;2023-03-31T16:30:58;22.40;;;12.27;;
70825;SDS011;58446;41.490;22.098;2023-03-31T16:33:27;19.80;;;10.70;;
70825;SDS011;58446;41.490;22.098;2023-03-31T16:35:55;16.42;;;7.35;;
70825;SDS011;58446;41.490;22.098;2023-03-31T16:38:23;25.80;;;16.48;;
70825;SDS011;58446;41.490;22.098;2023-03-31T16:41:01;20.80;;;9.70;;
70825;SDS011;58446;41.490;22.098;2023-03-31T16:43:33;23.13;;;14.47;;
70825;SDS011;58446;41.490;22.098;2023-03-31T16:46:00;48.92;;;31.48;;
70825;SDS011;58446;41.490;22.098;2023-03-31T16:48:30;31.58;;;16.42;;
70825;SDS011;58446;41.490;22.098;2023-03-31T16:50:58;20.85;;;12.30;;
70825;SDS011;58446;41.490;22.098;2023-03-31T16:53:27;23.80;;;15.60;;
70825;SDS011;58446;41.490;22.098;2023-03-31T16:55:55;29.80;;;19.50;;
70825;SDS011;58446;41.490;22.098;2023-03-31T16:58:23;35.55;;;22.92;;
70825;SDS011;58446;41.490;22.098;2023-03-31T17:00:50;43.67;;;28.90;;
70825;SDS011;58446;41.490;22.098;2023-03-31T17:03:16;50.55;;;32.03;;
70825;SDS011;58446;41.490;22.098;2023-03-31T17:05:43;34.53;;;21.23;;
70825;SDS011;58446;41.490;22.098;2023-03-31T17:08:11;61.60;;;36.33;;
70825;SDS011;58446;41.490;22.098;2023-03-31T17:10:40;78.80;;;43.65;;
70825;SDS011;58446;41.490;22.098;2023-03-31T17:13:06;46.17;;;28.50;;
70825;SDS011;58446;41.490;22.098;2023-03-31T17:15:33;57.20;;;31.85;;
70825;SDS011;58446;41.490;22.098;2023-03-31T17:18:00;48.58;;;25.58;;
70825;SDS011;58446;41.490;22.098;2023-03-31T17:20:28;42.17;;;22.27;;
70825;SDS011;58446;41.490;22.098;2023-03-31T17:22:54;42.83;;;25.15;;
70825;SDS011;58446;41.490;22.098;2023-03-31T17:25:20;42.42;;;26.20;;
70825;SDS011;58446;41.490;22.098;2023-03-31T17:27:46;35.13;;;22.60;;
70825;SDS011;58446;41.490;22.098;2023-03-31T17:30:12;48.65;;;34.60;;
70825;SDS011;58446;41.490;22.098;2023-03-31T17:32:38;44.90;;;29.05;;
70825;SDS011;58446;41.490;22.098;2023-03-31T17:35:04;42.08;;;26.85;;
70825;SDS011;58446;41.490;22.098;2023-03-31T17:37:31;45.17;;;26.57;;
70825;SDS011;58446;41.490;22.098;2023-03-31T17:39:57;42.45;;;22.27;;
70825;SDS011;58446;41.490;22.098;2023-03-31T17:42:23;17.63;;;8.85;;
70825;SDS011;58446;41.490;22.098;2023-03-31T17:44:49;15.25;;;8.55;;
70825;SDS011;58446;41.490;22.098;2023-03-31T17:47:16;15.50;;;5.67;;
70825;SDS011;58446;41.490;22.098;2023-03-31T17:49:43;15.05;;;6.07;;
70825;SDS011;58446;41.490;22.098;2023-03-31T17:52:10;9.70;;;4.40;;
70825;SDS011;58446;41.490;22.098;2023-03-31T17:54:37;9.85;;;2.65;;
70825;SDS011;58446;41.490;22.098;2023-03-31T17:57:03;8.45;;;2.60;;